Time;durP1;ratioP1;P1;durP2;ratioP2;P2;SDS_P1;SDS_P2;PMS_P1;PMS_P2;Temp;Humidity;BMP_temperature;BMP_pressure;BME280_temperature;BME280_humidity;BME280_pressure;Samples;Min_cycle;Max_cycle;Signal;HPM_P1;HPM_P2
2024/03/13 00:00:09;;;;;;;13.20;5.30;;;8.20;99.90;;;;;;5078776;28;20481;-72
2024/03/13 00:02:37;;;;;;;13.30;5.80;;;8.20;99.90;;;;;;5086587;27;20450;-71
2024/03/13 00:05:04;;;;;;;8.40;4.93;;;8.30;99.90;;;;;;5087764;27;21481;-73
2024/03/13 00:07:32;;;;;;;12.80;4.57;;;8.30;99.90;;;;;;5073965;27;20479;-72
2024/03/13 00:10:01;;;;;;;7.73;3.40;;;8.40;99.90;;;;;;5081297;28;20992;-71
2024/03/13 00:12:28;;;;;;;7.20;3.80;;;8.30;99.90;;;;;;5079974;27;20519;-71
2024/03/13 00:14:57;;;;;;;10.67;3.43;;;8.50;99.90;;;;;;5083373;28;20905;-71
2024/03/13 00:17:24;;;;;;;8.17;4.93;;;8.50;99.90;;;;;;5076327;28;20457;-71
2024/03/13 00:19:54;;;;;;;6.00;3.10;;;8.60;99.90;;;;;;5085274;27;20482;-71
2024/03/13 00:22:21;;;;;;;7.13;2.77;;;8.80;99.90;;;;;;5088107;28;20937;-71
2024/03/13 00:24:48;;;;;;;7.30;3.20;;;8.80;99.90;;;;;;5085378;22;20492;-71
2024/03/13 00:27:16;;;;;;;4.67;2.90;;;8.80;99.90;;;;;;5053897;28;20476;-70
2024/03/13 00:29:44;;;;;;;5.23;2.90;;;8.80;99.90;;;;;;5044101;28;20475;-71
2024/03/13 00:32:15;;;;;;;8.60;2.57;;;8.80;99.90;;;;;;5030841;28;21577;-70
2024/03/13 00:34:43;;;;;;;6.10;3.80;;;8.90;99.90;;;;;;5028774;28;20459;-70
2024/03/13 00:37:10;;;;;;;7.23;3.27;;;8.80;99.90;;;;;;5029828;28;20529;-70
2024/03/13 00:39:37;;;;;;;6.17;4.33;;;8.80;99.90;;;;;;5019933;28;20482;-70
2024/03/13 00:42:05;;;;;;;2.83;2.30;;;8.80;99.90;;;;;;5032206;28;20473;-70
2024/03/13 00:44:34;;;;;;;3.10;2.70;;;8.80;99.90;;;;;;5027694;28;22684;-70
2024/03/13 00:47:03;;;;;;;6.97;3.83;;;8.90;99.90;;;;;;5029886;28;20487;-70
2024/03/13 00:49:31;;;;;;;6.07;3.80;;;8.80;99.90;;;;;;5034562;28;20813;-68
2024/03/13 00:51:59;;;;;;;9.60;4.33;;;8.80;99.90;;;;;;5034630;28;20966;-68
2024/03/13 00:54:27;;;;;;;6.80;5.97;;;8.80;99.90;;;;;;5037587;28;20455;-69
2024/03/13 00:56:56;;;;;;;10.80;4.80;;;8.90;99.90;;;;;;5035569;28;20551;-68
2024/03/13 00:59:23;;;;;;;5.83;3.00;;;8.90;99.90;;;;;;5024473;28;20502;-69
2024/03/13 01:01:50;;;;;;;4.23;2.37;;;9.00;99.90;;;;;;5027865;28;20442;-69
2024/03/13 01:04:17;;;;;;;8.00;3.67;;;9.00;99.90;;;;;;5035635;28;20582;-68
2024/03/13 01:06:45;;;;;;;8.57;4.67;;;8.90;99.90;;;;;;5033604;28;20456;-69
2024/03/13 01:09:12;;;;;;;3.57;2.83;;;8.90;99.90;;;;;;5027023;28;20482;-69
2024/03/13 01:11:39;;;;;;;5.30;3.57;;;9.00;99.90;;;;;;5029632;28;20441;-69
2024/03/13 01:14:06;;;;;;;6.10;3.27;;;9.00;99.90;;;;;;5033451;28;20455;-68
2024/03/13 01:16:34;;;;;;;6.83;5.27;;;8.90;99.90;;;;;;5028617;28;20830;-68
2024/03/13 01:19:02;;;;;;;5.87;1.93;;;8.90;99.90;;;;;;5032523;28;20594;-70
2024/03/13 01:21:29;;;;;;;4.93;3.33;;;8.90;99.90;;;;;;5032797;28;20460;-69
2024/03/13 01:23:57;;;;;;;6.20;3.80;;;8.80;99.90;;;;;;5025064;28;20872;-68
2024/03/13 01:26:24;;;;;;;5.67;3.93;;;8.80;99.90;;;;;;5031415;28;20499;-68
2024/03/13 01:28:51;;;;;;;7.03;2.50;;;9.00;99.90;;;;;;5029761;28;20426;-68
2024/03/13 01:31:19;;;;;;;7.30;4.90;;;9.00;99.90;;;;;;5031399;28;21857;-68
2024/03/13 01:33:45;;;;;;;6.77;3.40;;;9.00;99.90;;;;;;5028892;28;20589;-68
2024/03/13 01:36:12;;;;;;;8.20;4.00;;;9.00;99.90;;;;;;5026895;28;20460;-68
2024/03/13 01:38:38;;;;;;;3.00;1.80;;;9.00;99.90;;;;;;5036394;28;20459;-68
2024/03/13 01:55:10;;;;;;;4.13;1.53;;;9.10;99.90;;;;;;5031469;28;20543;-68
2024/03/13 01:58:07;;;;;;;2.90;2.60;;;9.20;99.90;;;;;;5030924;28;20469;-68
2024/03/13 02:03:22;;;;;;;4.60;2.70;;;9.10;99.90;;;;;;5023930;28;20487;-68
2024/03/13 02:05:50;;;;;;;5.33;4.20;;;9.10;99.90;;;;;;5027597;28;21491;-70
2024/03/13 02:08:18;;;;;;;5.87;3.27;;;9.10;99.90;;;;;;5029968;28;20460;-68
2024/03/13 02:10:46;;;;;;;10.20;3.00;;;9.00;99.90;;;;;;5037983;28;20486;-66
2024/03/13 02:13:16;;;;;;;5.40;2.97;;;9.10;99.90;;;;;;5032041;28;20487;-68
2024/03/13 02:15:44;;;;;;;5.60;3.77;;;9.20;99.90;;;;;;5031715;28;20455;-68
2024/03/13 02:18:21;;;;;;;5.03;2.60;;;9.20;99.90;;;;;;5026219;28;20472;-68
2024/03/13 02:20:50;;;;;;;7.63;3.10;;;9.20;99.90;;;;;;5033825;28;20486;-68
2024/03/13 02:23:21;;;;;;;3.80;3.40;;;9.20;99.90;;;;;;5011416;28;20489;-68
2024/03/13 02:25:51;;;;;;;5.60;3.00;;;9.20;99.90;;;;;;4982212;28;20578;-68
2024/03/13 02:28:18;;;;;;;4.37;3.27;;;9.30;99.90;;;;;;4987399;28;20652;-68
2024/03/13 02:30:45;;;;;;;5.27;3.53;;;9.40;99.90;;;;;;4993258;28;20849;-68
2024/03/13 02:33:12;;;;;;;4.80;2.47;;;9.40;99.90;;;;;;4974678;28;20470;-68
2024/03/13 02:35:40;;;;;;;6.70;2.70;;;9.30;99.90;;;;;;5007987;28;20462;-69
2024/03/13 02:38:07;;;;;;;10.47;3.33;;;9.40;99.90;;;;;;4986985;28;20463;-68
2024/03/13 02:40:34;;;;;;;4.37;2.47;;;9.50;99.90;;;;;;4998581;28;20641;-68
2024/03/13 02:43:01;;;;;;;4.47;3.23;;;9.60;99.90;;;;;;5000151;28;20472;-68
2024/03/13 02:45:28;;;;;;;3.77;2.47;;;9.50;99.90;;;;;;5000097;28;20498;-68
2024/03/13 02:47:55;;;;;;;4.23;2.73;;;9.40;99.90;;;;;;4993892;28;20451;-68
2024/03/13 02:50:22;;;;;;;5.13;2.30;;;9.30;99.90;;;;;;5002459;28;20488;-68
2024/03/13 02:52:49;;;;;;;4.70;2.80;;;9.20;99.90;;;;;;5000264;28;20456;-68
2024/03/13 02:55:16;;;;;;;10.80;3.13;;;9.30;99.90;;;;;;4995432;28;20467;-68
2024/03/13 02:57:44;;;;;;;3.10;2.80;;;9.40;99.90;;;;;;5002548;28;20545;-69
2024/03/13 03:00:12;;;;;;;3.73;3.30;;;9.50;99.90;;;;;;5007380;28;20488;-69
2024/03/13 03:02:40;;;;;;;3.40;2.50;;;9.60;99.90;;;;;;4995247;28;20475;-68
2024/03/13 03:05:07;;;;;;;3.60;1.83;;;9.70;99.90;;;;;;5017955;28;20960;-68
2024/03/13 03:07:34;;;;;;;4.00;2.23;;;9.70;99.90;;;;;;5002778;28;20495;-68
2024/03/13 03:10:01;;;;;;;6.83;2.67;;;9.70;99.90;;;;;;5000605;28;20467;-68
2024/03/13 03:12:28;;;;;;;3.70;3.10;;;9.50;99.90;;;;;;4998266;28;20470;-68
2024/03/13 03:14:55;;;;;;;6.70;3.47;;;9.50;99.90;;;;;;4998025;28;20456;-68
2024/03/13 03:17:22;;;;;;;3.90;2.57;;;9.50;99.90;;;;;;4996663;28;20467;-68
2024/03/13 03:19:50;;;;;;;3.83;2.90;;;9.70;99.90;;;;;;4999964;28;21073;-68
2024/03/13 03:22:17;;;;;;;2.03;1.80;;;9.60;99.90;;;;;;4997309;28;20450;-68
2024/03/13 03:24:45;;;;;;;6.17;3.50;;;9.70;99.90;;;;;;4997122;28;20483;-67
2024/03/13 03:27:12;;;;;;;9.93;2.80;;;9.70;99.90;;;;;;4989286;28;22247;-68
2024/03/13 03:29:39;;;;;;;3.67;1.60;;;9.60;99.90;;;;;;4993895;28;20479;-68
2024/03/13 03:32:06;;;;;;;4.40;1.73;;;9.60;99.90;;;;;;4993301;28;20530;-69
2024/03/13 03:34:33;;;;;;;2.77;2.43;;;9.50;99.90;;;;;;4996988;28;20469;-69
2024/03/13 03:37:01;;;;;;;3.97;2.30;;;9.50;99.90;;;;;;4995336;28;20459;-69
2024/03/13 03:39:29;;;;;;;4.17;2.23;;;9.60;99.90;;;;;;4994136;28;20488;-69
2024/03/13 03:41:57;;;;;;;8.77;2.50;;;9.70;99.90;;;;;;4992393;28;20470;-69
2024/03/13 03:44:24;;;;;;;4.40;2.80;;;9.70;99.90;;;;;;4997284;28;20474;-68
2024/03/13 03:46:51;;;;;;;5.97;2.00;;;9.70;99.90;;;;;;4995924;28;20485;-69
2024/03/13 03:49:17;;;;;;;4.50;2.63;;;9.60;99.90;;;;;;5003197;28;20487;-69
2024/03/13 03:51:44;;;;;;;5.00;2.57;;;9.60;99.90;;;;;;5003780;28;20547;-69
2024/03/13 03:54:11;;;;;;;2.70;2.00;;;9.60;99.90;;;;;;5005199;28;20466;-69
2024/03/13 03:56:39;;;;;;;3.20;1.93;;;9.70;99.90;;;;;;4993088;28;20430;-69
2024/03/13 03:59:07;;;;;;;4.67;2.70;;;9.70;99.90;;;;;;5002957;28;20498;-69
2024/03/13 04:01:35;;;;;;;5.00;2.53;;;9.70;99.90;;;;;;4995714;28;20435;-68
2024/03/13 04:04:02;;;;;;;5.83;2.73;;;9.70;99.90;;;;;;5001445;28;20469;-69
2024/03/13 04:06:29;;;;;;;3.30;2.10;;;9.70;99.90;;;;;;4996816;28;21355;-68
2024/03/13 04:08:56;;;;;;;3.07;2.47;;;9.50;99.90;;;;;;4996809;28;20498;-69
2024/03/13 04:11:23;;;;;;;4.00;2.60;;;9.60;99.90;;;;;;4998585;28;20460;-68
2024/03/13 04:13:50;;;;;;;4.03;3.37;;;9.50;99.90;;;;;;4993272;28;20473;-69
2024/03/13 04:16:17;;;;;;;4.20;2.43;;;9.50;99.90;;;;;;4997569;28;20460;-69
2024/03/13 04:18:44;;;;;;;5.53;2.70;;;9.60;99.90;;;;;;5002145;28;20452;-68
2024/03/13 04:21:12;;;;;;;3.97;2.13;;;9.60;99.90;;;;;;5000353;28;20463;-68
2024/03/13 04:23:39;;;;;;;7.07;3.30;;;9.80;99.90;;;;;;4998225;28;20442;-68
2024/03/13 04:26:06;;;;;;;5.63;3.57;;;9.80;99.90;;;;;;5001398;28;20479;-69
2024/03/13 04:28:33;;;;;;;4.60;2.53;;;9.80;99.90;;;;;;4998711;28;20460;-69
2024/03/13 04:31:01;;;;;;;4.20;2.67;;;9.80;99.90;;;;;;4995342;28;20485;-69
2024/03/13 04:33:28;;;;;;;4.23;2.67;;;9.70;99.90;;;;;;4996766;28;20442;-70
2024/03/13 04:35:57;;;;;;;3.27;1.77;;;9.60;99.90;;;;;;5002256;28;20452;-70
2024/03/13 04:38:24;;;;;;;3.23;1.57;;;9.70;99.90;;;;;;4999577;28;20518;-69
2024/03/13 04:40:51;;;;;;;3.53;2.60;;;9.80;99.90;;;;;;5007255;28;20463;-69
2024/03/13 04:43:18;;;;;;;4.13;2.30;;;9.80;99.90;;;;;;4993282;28;20540;-70
2024/03/13 04:45:45;;;;;;;2.90;1.90;;;9.70;99.90;;;;;;5004305;28;20563;-69
2024/03/13 04:48:13;;;;;;;2.90;2.17;;;9.80;99.90;;;;;;4998407;28;20452;-69
2024/03/13 04:50:41;;;;;;;2.50;2.30;;;9.70;99.90;;;;;;4997685;28;21760;-69
2024/03/13 04:53:08;;;;;;;3.87;2.13;;;9.80;99.90;;;;;;4996420;28;20451;-69
2024/03/13 04:55:34;;;;;;;3.93;2.03;;;9.90;99.90;;;;;;5004374;28;20556;-68
2024/03/13 04:58:01;;;;;;;6.23;3.10;;;9.90;99.90;;;;;;5000230;28;20426;-69
2024/03/13 05:00:28;;;;;;;5.23;2.33;;;10.00;99.90;;;;;;4998712;28;20455;-69
2024/03/13 05:02:55;;;;;;;4.23;2.37;;;9.90;99.90;;;;;;4995579;28;20460;-69
2024/03/13 05:05:22;;;;;;;3.33;2.10;;;9.90;99.90;;;;;;5017837;28;20483;-70
2024/03/13 05:07:49;;;;;;;2.53;2.03;;;9.80;99.90;;;;;;5002879;28;20757;-68
2024/03/13 05:10:17;;;;;;;3.47;2.30;;;9.80;99.90;;;;;;5004240;28;20472;-69
2024/03/13 05:12:44;;;;;;;2.70;2.00;;;9.90;99.90;;;;;;5005261;28;20950;-68
2024/03/13 05:15:10;;;;;;;4.73;2.53;;;9.90;99.90;;;;;;4998013;28;21051;-69
2024/03/13 05:17:38;;;;;;;5.00;2.67;;;9.90;99.90;;;;;;5001197;28;20456;-68
2024/03/13 05:20:07;;;;;;;4.37;2.07;;;9.80;99.90;;;;;;4998723;28;20580;-68
2024/03/13 05:22:34;;;;;;;3.93;2.40;;;9.90;99.90;;;;;;4993660;28;20513;-69
2024/03/13 05:25:01;;;;;;;3.77;2.37;;;9.90;99.90;;;;;;5006050;28;20479;-69
2024/03/13 05:27:28;;;;;;;7.37;3.17;;;10.00;99.90;;;;;;4999833;28;20456;-69
2024/03/13 05:29:56;;;;;;;3.93;2.17;;;10.00;99.90;;;;;;5008045;28;20483;-69
2024/03/13 05:32:23;;;;;;;3.90;2.73;;;10.10;99.90;;;;;;5000591;28;20551;-68
2024/03/13 05:34:50;;;;;;;4.40;3.33;;;10.00;99.90;;;;;;5005729;28;21057;-68
2024/03/13 05:37:17;;;;;;;2.87;2.67;;;10.00;99.90;;;;;;5011876;28;20453;-68
2024/03/13 05:39:44;;;;;;;4.17;2.93;;;9.90;99.90;;;;;;5002740;28;20475;-69
2024/03/13 05:42:11;;;;;;;2.80;2.03;;;9.90;99.90;;;;;;5000054;28;20467;-68
2024/03/13 05:44:39;;;;;;;4.07;2.20;;;9.90;99.90;;;;;;4999931;28;20937;-68
2024/03/13 05:47:06;;;;;;;3.80;2.20;;;9.90;99.90;;;;;;5009055;28;20495;-68
2024/03/13 05:49:33;;;;;;;4.20;3.20;;;9.90;99.90;;;;;;5008573;28;20837;-68
2024/03/13 05:52:01;;;;;;;4.70;2.73;;;9.90;99.90;;;;;;5010362;28;20466;-68
2024/03/13 05:54:28;;;;;;;2.33;1.77;;;10.00;99.90;;;;;;5016422;28;20467;-68
2024/03/13 05:56:55;;;;;;;5.43;3.33;;;10.00;99.90;;;;;;5005945;28;20467;-68
2024/03/13 05:59:22;;;;;;;4.60;1.80;;;10.10;99.90;;;;;;4994930;28;20475;-68
2024/03/13 06:01:49;;;;;;;2.93;2.40;;;10.10;99.90;;;;;;5008339;28;20452;-68
2024/03/13 06:04:20;;;;;;;3.27;1.90;;;10.10;99.90;;;;;;5001747;28;20908;-67
2024/03/13 06:06:48;;;;;;;5.07;2.70;;;10.00;99.90;;;;;;5001572;28;20490;-69
2024/03/13 06:09:15;;;;;;;2.30;2.00;;;10.10;99.90;;;;;;5007939;28;21077;-68
2024/03/13 06:11:42;;;;;;;3.50;2.60;;;10.10;99.90;;;;;;5014019;28;20999;-69
2024/03/13 06:14:09;;;;;;;2.67;1.90;;;10.10;99.90;;;;;;5009755;28;20463;-69
2024/03/13 06:16:36;;;;;;;3.93;2.83;;;10.20;99.90;;;;;;5002062;28;20927;-69
2024/03/13 06:19:04;;;;;;;2.23;1.70;;;10.10;99.90;;;;;;4999640;28;20577;-69
2024/03/13 06:21:31;;;;;;;2.70;2.27;;;10.20;99.90;;;;;;5003407;28;20459;-69
2024/03/13 06:26:45;;;;;;;3.87;2.30;;;10.10;99.90;;;;;;5114561;22;21274;-72
2024/03/13 06:31:57;;;;;;;4.07;2.23;;;10.10;99.90;;;;;;5009811;28;20478;-72
2024/03/13 06:34:23;;;;;;;2.70;1.90;;;10.10;99.90;;;;;;5007406;28;20463;-72
2024/03/13 06:36:50;;;;;;;2.93;2.57;;;10.20;99.90;;;;;;5014400;28;20876;-71
2024/03/13 06:39:19;;;;;;;2.33;2.13;;;10.20;99.90;;;;;;5029175;28;20931;-73
2024/03/13 06:41:46;;;;;;;4.10;2.80;;;10.30;99.90;;;;;;5004875;28;20463;-72
2024/03/13 06:44:13;;;;;;;3.00;1.60;;;10.20;99.90;;;;;;5001164;28;20506;-72
2024/03/13 06:46:40;;;;;;;5.00;2.30;;;10.30;99.90;;;;;;5009153;28;20490;-73
2024/03/13 06:49:06;;;;;;;5.73;5.07;;;10.40;99.90;;;;;;5004446;28;20502;-73
2024/03/13 06:51:34;;;;;;;4.03;2.93;;;10.40;99.90;;;;;;5005974;28;20455;-71
2024/03/13 06:54:00;;;;;;;2.40;2.10;;;10.40;99.90;;;;;;5023620;28;20550;-72
2024/03/13 06:56:28;;;;;;;2.83;2.60;;;10.40;99.90;;;;;;5004379;28;20460;-72
2024/03/13 06:58:56;;;;;;;3.57;2.80;;;10.40;99.90;;;;;;5009760;28;20459;-71
2024/03/13 07:01:23;;;;;;;2.80;2.27;;;10.40;99.90;;;;;;5017279;28;20430;-73
2024/03/13 07:03:50;;;;;;;4.17;2.87;;;10.40;99.90;;;;;;5006602;28;20542;-72
2024/03/13 07:06:18;;;;;;;2.50;2.00;;;10.40;99.90;;;;;;5011857;28;21422;-72
2024/03/13 07:08:44;;;;;;;4.73;2.70;;;10.30;99.90;;;;;;5024642;28;20477;-71
2024/03/13 07:11:13;;;;;;;2.47;2.13;;;10.50;99.90;;;;;;5003721;28;20497;-72
2024/03/13 07:13:39;;;;;;;3.10;2.37;;;10.50;99.90;;;;;;5002437;28;20463;-72
2024/03/13 07:16:06;;;;;;;4.47;2.57;;;10.50;99.90;;;;;;5025345;28;20891;-71
2024/03/13 07:18:33;;;;;;;2.23;1.60;;;10.60;99.90;;;;;;5020283;28;20857;-72
2024/03/13 07:21:02;;;;;;;3.60;2.63;;;10.70;99.90;;;;;;5004690;28;20483;-71
2024/03/13 07:23:29;;;;;;;3.53;2.20;;;10.70;99.90;;;;;;5021816;28;20458;-72
2024/03/13 07:25:56;;;;;;;4.70;2.13;;;10.50;99.90;;;;;;4995080;28;21048;-72
2024/03/13 07:28:23;;;;;;;2.83;2.50;;;10.60;99.90;;;;;;5016173;28;20459;-72
2024/03/13 07:30:49;;;;;;;3.70;2.50;;;10.60;99.90;;;;;;5019218;28;20482;-72
2024/03/13 07:33:16;;;;;;;3.03;2.37;;;10.60;99.90;;;;;;5024111;28;20955;-71
2024/03/13 07:35:43;;;;;;;2.67;2.00;;;10.70;99.90;;;;;;5014913;28;20459;-72
2024/03/13 07:38:10;;;;;;;2.67;1.70;;;10.70;99.90;;;;;;5003681;28;20797;-72
2024/03/13 07:40:39;;;;;;;1.87;1.77;;;10.90;99.90;;;;;;5009328;28;20829;-71
2024/03/13 07:43:08;;;;;;;4.13;2.03;;;11.00;99.90;;;;;;5021235;28;20585;-72
2024/03/13 07:45:35;;;;;;;3.90;2.00;;;11.00;99.90;;;;;;5019137;28;20467;-72
2024/03/13 07:48:03;;;;;;;2.50;1.93;;;11.10;99.90;;;;;;5002769;28;20456;-71
2024/03/13 07:50:30;;;;;;;3.53;2.57;;;11.10;99.90;;;;;;5019490;28;20529;-72
2024/03/13 07:52:57;;;;;;;4.90;2.53;;;11.10;99.90;;;;;;4997878;28;20815;-72
2024/03/13 07:55:23;;;;;;;7.10;2.50;;;11.30;99.90;;;;;;5019099;28;21268;-72
2024/03/13 07:57:52;;;;;;;2.80;2.40;;;11.20;99.90;;;;;;5016877;28;21630;-72
2024/03/13 08:00:22;;;;;;;2.83;2.50;;;11.30;99.90;;;;;;5003232;28;20495;-71
2024/03/13 08:02:49;;;;;;;2.90;2.30;;;11.40;99.90;;;;;;5017951;28;20557;-72
2024/03/13 08:05:16;;;;;;;2.80;1.90;;;11.40;99.90;;;;;;5013987;28;20541;-72
2024/03/13 08:07:44;;;;;;;3.63;2.00;;;11.50;99.90;;;;;;5003960;28;20503;-72
2024/03/13 08:10:11;;;;;;;2.23;1.83;;;11.60;99.90;;;;;;5019400;28;20483;-72
2024/03/13 08:12:38;;;;;;;2.87;2.50;;;11.70;99.90;;;;;;5007233;28;20919;-72
2024/03/13 08:15:07;;;;;;;5.93;3.43;;;11.60;99.90;;;;;;5025717;28;20475;-72
2024/03/13 08:17:34;;;;;;;5.17;2.70;;;11.50;99.90;;;;;;5023942;28;20475;-71
2024/03/13 08:20:01;;;;;;;2.40;2.20;;;11.70;99.90;;;;;;5012880;28;20503;-72
2024/03/13 08:22:28;;;;;;;2.60;1.97;;;11.80;99.90;;;;;;4999700;28;20525;-71
2024/03/13 08:24:55;;;;;;;10.83;2.03;;;11.90;99.90;;;;;;5008464;28;20471;-72
2024/03/13 08:27:22;;;;;;;3.83;1.97;;;11.90;99.90;;;;;;5004142;28;20475;-72
2024/03/13 08:29:49;;;;;;;2.67;2.13;;;11.70;99.90;;;;;;5004840;28;20479;-72
2024/03/13 08:32:16;;;;;;;2.60;2.37;;;11.70;99.90;;;;;;4982081;28;20549;-72
2024/03/13 08:34:43;;;;;;;4.87;2.47;;;11.60;99.90;;;;;;5010035;28;20459;-71
2024/03/13 08:37:11;;;;;;;2.53;2.00;;;11.70;99.90;;;;;;4999257;28;20659;-71
2024/03/13 08:39:38;;;;;;;4.07;2.60;;;11.80;99.90;;;;;;5001659;28;20471;-72
2024/03/13 08:42:06;;;;;;;3.70;2.47;;;11.70;99.90;;;;;;5019411;28;20472;-71
2024/03/13 08:44:33;;;;;;;4.60;2.60;;;11.70;99.90;;;;;;4999947;28;20527;-71
2024/03/13 08:47:00;;;;;;;2.20;2.00;;;11.80;99.90;;;;;;4999968;28;20825;-71
2024/03/13 08:49:27;;;;;;;6.43;2.90;;;11.70;99.90;;;;;;5020048;28;20483;-71
2024/03/13 08:51:53;;;;;;;3.10;2.17;;;11.60;99.90;;;;;;5008533;28;20550;-72
2024/03/13 08:54:21;;;;;;;3.53;1.73;;;11.60;99.90;;;;;;5023994;28;20581;-72
2024/03/13 08:56:48;;;;;;;2.90;2.60;;;11.60;99.90;;;;;;5024689;28;20451;-72
2024/03/13 08:59:15;;;;;;;4.50;3.27;;;11.70;99.90;;;;;;5025970;28;20475;-72
2024/03/13 09:01:43;;;;;;;5.70;2.87;;;11.70;99.90;;;;;;5010961;28;21077;-71
2024/03/13 09:04:10;;;;;;;2.73;2.53;;;11.70;99.90;;;;;;5004744;28;20451;-73
2024/03/13 09:06:38;;;;;;;3.33;1.67;;;11.70;99.90;;;;;;5004063;28;20457;-71
2024/03/13 09:09:04;;;;;;;2.97;2.60;;;11.80;99.90;;;;;;5010461;28;20533;-72
2024/03/13 09:11:31;;;;;;;2.30;2.10;;;11.90;99.90;;;;;;5005815;28;20463;-71
2024/03/13 09:14:01;;;;;;;3.73;2.80;;;12.00;99.90;;;;;;5008560;28;20463;-71
2024/03/13 09:16:28;;;;;;;2.50;1.97;;;12.00;99.90;;;;;;5005121;28;20997;-71
2024/03/13 09:18:56;;;;;;;3.27;1.90;;;12.00;99.90;;;;;;5006805;28;20478;-72
2024/03/13 09:21:23;;;;;;;3.30;2.50;;;12.00;99.90;;;;;;5009139;28;20482;-72
2024/03/13 09:23:51;;;;;;;2.87;1.80;;;12.00;99.90;;;;;;5010395;28;20465;-71
2024/03/13 09:26:18;;;;;;;2.60;2.17;;;12.00;99.90;;;;;;5008923;28;20961;-72
2024/03/13 09:28:45;;;;;;;3.80;2.00;;;12.00;99.90;;;;;;5020583;28;20459;-72
2024/03/13 09:31:13;;;;;;;5.33;2.60;;;11.90;99.90;;;;;;5026231;28;20466;-71
2024/03/13 09:33:40;;;;;;;2.77;2.13;;;12.00;99.90;;;;;;5006985;28;20805;-71
2024/03/13 09:36:08;;;;;;;3.23;2.83;;;11.90;99.90;;;;;;4999048;28;20520;-71
2024/03/13 09:38:35;;;;;;;3.13;2.17;;;11.90;99.90;;;;;;5007346;28;20433;-72
2024/03/13 09:41:05;;;;;;;4.47;2.37;;;12.00;99.90;;;;;;5006371;28;20484;-72
2024/03/13 09:43:32;;;;;;;13.80;3.60;;;12.10;99.90;;;;;;5008411;28;20502;-71
2024/03/13 09:45:59;;;;;;;3.53;2.53;;;12.00;99.90;;;;;;5008150;28;20467;-72
2024/03/13 09:48:26;;;;;;;8.60;2.33;;;12.00;99.90;;;;;;5001840;28;20471;-72
2024/03/13 09:50:55;;;;;;;6.27;4.00;;;12.00;99.90;;;;;;5004322;28;20733;-72
2024/03/13 09:53:22;;;;;;;4.57;3.40;;;12.20;99.90;;;;;;5016606;28;20463;-71
2024/03/13 09:55:49;;;;;;;3.53;1.77;;;12.20;99.90;;;;;;5023622;28;20726;-72
2024/03/13 09:58:16;;;;;;;6.90;4.20;;;12.40;99.90;;;;;;5011323;28;20455;-72
2024/03/13 10:00:43;;;;;;;2.40;2.17;;;12.50;99.90;;;;;;5010731;28;20523;-72
2024/03/13 10:03:15;;;;;;;4.47;3.13;;;12.60;99.90;;;;;;5015673;28;20555;-72
2024/03/13 10:05:42;;;;;;;4.70;3.43;;;12.60;99.90;;;;;;5002545;28;20459;-72
2024/03/13 10:08:09;;;;;;;4.07;2.50;;;12.60;99.90;;;;;;4996062;28;20498;-72
2024/03/13 10:10:36;;;;;;;4.27;3.87;;;12.60;99.90;;;;;;5006732;28;20478;-72
2024/03/13 10:13:03;;;;;;;4.20;2.53;;;12.50;99.90;;;;;;5011245;28;20499;-72
2024/03/13 10:15:30;;;;;;;9.10;2.93;;;12.40;99.90;;;;;;5008169;28;20903;-72
2024/03/13 10:17:58;;;;;;;2.90;2.20;;;12.40;99.90;;;;;;5017160;28;20592;-72
2024/03/13 10:20:25;;;;;;;6.50;3.57;;;12.40;99.90;;;;;;5010754;28;20500;-72
2024/03/13 10:22:53;;;;;;;4.93;2.40;;;12.50;99.90;;;;;;5013437;28;20470;-72
2024/03/13 10:25:20;;;;;;;11.53;3.83;;;12.50;99.90;;;;;;5011907;28;20463;-72
2024/03/13 10:27:47;;;;;;;6.60;4.10;;;12.50;99.90;;;;;;5007525;28;20495;-72
2024/03/13 10:30:15;;;;;;;5.20;4.40;;;12.50;99.90;;;;;;5005029;28;20485;-72
2024/03/13 10:32:42;;;;;;;5.57;4.20;;;12.50;99.90;;;;;;5012202;28;20456;-72
2024/03/13 10:35:10;;;;;;;9.47;6.00;;;12.60;99.90;;;;;;5021339;28;20482;-72
2024/03/13 10:37:37;;;;;;;8.57;4.30;;;12.50;99.90;;;;;;4992455;28;20458;-71
2024/03/13 10:40:06;;;;;;;15.43;5.93;;;12.40;99.90;;;;;;5021222;28;20475;-72
2024/03/13 10:42:33;;;;;;;5.50;4.30;;;12.40;99.90;;;;;;5010559;28;20460;-73
2024/03/13 10:45:00;;;;;;;10.27;6.73;;;12.50;99.90;;;;;;5031192;28;21220;-72
2024/03/13 10:47:27;;;;;;;7.37;4.10;;;12.40;99.90;;;;;;5016787;28;20479;-72
2024/03/13 10:49:54;;;;;;;5.67;3.97;;;12.40;99.90;;;;;;5034701;28;20472;-72
2024/03/13 10:52:21;;;;;;;7.90;4.00;;;12.30;99.90;;;;;;5011543;28;20478;-72
2024/03/13 10:54:49;;;;;;;8.00;4.00;;;12.30;99.90;;;;;;5006280;28;20486;-72
2024/03/13 10:57:17;;;;;;;9.97;4.57;;;12.20;99.90;;;;;;4997635;28;20853;-72
2024/03/13 10:59:44;;;;;;;8.40;4.43;;;12.40;99.90;;;;;;5021831;28;20475;-72
2024/03/13 11:02:11;;;;;;;8.83;4.50;;;12.40;99.90;;;;;;5005962;28;20467;-72
2024/03/13 11:04:38;;;;;;;9.63;5.07;;;12.40;99.90;;;;;;5009917;28;20466;-72
2024/03/13 11:07:06;;;;;;;9.97;6.50;;;12.50;99.90;;;;;;5004934;28;20488;-72
2024/03/13 11:09:33;;;;;;;12.20;6.13;;;12.50;99.90;;;;;;5001377;28;20561;-72
2024/03/13 11:12:00;;;;;;;6.20;4.80;;;12.60;99.90;;;;;;5002880;28;20458;-72
2024/03/13 11:14:27;;;;;;;9.70;6.10;;;12.60;99.90;;;;;;5024253;28;20463;-72
2024/03/13 11:16:55;;;;;;;13.10;5.07;;;12.60;99.90;;;;;;5013522;28;21033;-71
2024/03/13 11:19:21;;;;;;;9.70;5.40;;;12.50;99.90;;;;;;5005990;28;20569;-72
2024/03/13 11:21:52;;;;;;;12.60;6.87;;;12.50;99.90;;;;;;5003546;28;21025;-72
2024/03/13 11:24:23;;;;;;;6.63;4.03;;;12.50;99.90;;;;;;5006921;28;21121;-72
2024/03/13 11:26:50;;;;;;;5.17;3.90;;;12.50;99.90;;;;;;5011711;28;20478;-72
2024/03/13 11:29:17;;;;;;;13.03;6.60;;;12.40;99.90;;;;;;5007224;28;21029;-72
2024/03/13 11:31:44;;;;;;;13.87;6.30;;;12.40;99.90;;;;;;5005685;28;20475;-72
2024/03/13 11:34:11;;;;;;;10.43;5.20;;;12.40;99.90;;;;;;5022463;28;20849;-71
2024/03/13 11:36:38;;;;;;;15.77;7.83;;;12.50;99.90;;;;;;5004933;28;20518;-73
2024/03/13 11:39:05;;;;;;;16.40;6.57;;;12.50;99.90;;;;;;5002905;28;21013;-72
2024/03/13 11:41:32;;;;;;;12.77;6.40;;;12.60;99.90;;;;;;5010168;28;20466;-72
2024/03/13 11:43:59;;;;;;;16.23;7.67;;;12.70;99.90;;;;;;5009068;28;20539;-72
2024/03/13 11:46:33;;;;;;;13.57;7.60;;;12.50;99.90;;;;;;5020262;28;20464;-72
2024/03/13 11:49:01;;;;;;;13.43;8.10;;;12.70;99.90;;;;;;5005148;28;20487;-72
2024/03/13 11:51:30;;;;;;;12.73;5.60;;;12.70;99.90;;;;;;5005248;28;20456;-71
2024/03/13 11:54:05;;;;;;;14.00;6.30;;;12.80;99.90;;;;;;5001201;28;20974;-72
2024/03/13 11:56:33;;;;;;;13.23;6.33;;;12.80;99.90;;;;;;5008849;28;20463;-72
2024/03/13 11:59:01;;;;;;;9.67;4.87;;;12.80;99.90;;;;;;5006796;28;20564;-72
2024/03/13 12:01:28;;;;;;;12.10;6.47;;;12.80;99.90;;;;;;5005908;28;20912;-72
2024/03/13 12:03:55;;;;;;;15.03;6.90;;;12.90;99.90;;;;;;5014341;28;20922;-72
2024/03/13 12:06:36;;;;;;;10.70;5.23;;;12.90;99.90;;;;;;5004014;28;20456;-71
2024/03/13 12:09:09;;;;;;;15.57;7.90;;;12.90;99.90;;;;;;5001065;28;20986;-72
2024/03/13 12:11:38;;;;;;;22.67;10.70;;;12.90;99.90;;;;;;5021069;28;21178;-72
2024/03/13 12:14:06;;;;;;;22.27;8.10;;;12.70;99.90;;;;;;5002986;28;20491;-72
2024/03/13 12:16:33;;;;;;;11.87;6.40;;;12.80;99.90;;;;;;5005780;28;20483;-71
2024/03/13 12:19:00;;;;;;;18.83;8.90;;;12.80;99.90;;;;;;5021064;28;20467;-71
2024/03/13 12:21:30;;;;;;;15.73;8.47;;;12.80;99.90;;;;;;5004908;28;20475;-72
2024/03/13 12:23:56;;;;;;;17.37;7.40;;;12.90;99.90;;;;;;5005484;28;20456;-72
2024/03/13 12:26:24;;;;;;;10.93;6.17;;;12.90;99.90;;;;;;5004814;28;20455;-72
2024/03/13 12:28:54;;;;;;;11.20;6.50;;;12.90;99.90;;;;;;5004057;28;20480;-72
2024/03/13 12:31:20;;;;;;;18.13;7.53;;;12.80;99.90;;;;;;5019126;28;20529;-72
2024/03/13 12:33:48;;;;;;;14.13;8.90;;;12.90;99.90;;;;;;5006869;28;20464;-72
2024/03/13 12:36:16;;;;;;;13.70;6.70;;;12.90;99.90;;;;;;5021147;28;20466;-71
2024/03/13 12:38:44;;;;;;;16.53;8.20;;;12.90;99.90;;;;;;5009855;28;20517;-71
2024/03/13 12:41:11;;;;;;;13.83;7.13;;;12.90;99.90;;;;;;5006977;28;20459;-72
2024/03/13 12:43:40;;;;;;;13.03;7.60;;;12.90;99.90;;;;;;5006004;28;20922;-71
2024/03/13 12:46:07;;;;;;;17.53;8.37;;;13.10;99.90;;;;;;5008609;28;20636;-72
2024/03/13 12:48:34;;;;;;;9.83;4.87;;;13.10;99.90;;;;;;5019055;28;20479;-72
2024/03/13 12:51:01;;;;;;;17.43;8.70;;;13.10;99.90;;;;;;5000312;28;20475;-72
2024/03/13 12:53:30;;;;;;;13.10;7.40;;;12.90;99.90;;;;;;5003015;28;20459;-72
2024/03/13 12:55:57;;;;;;;11.97;7.10;;;13.00;99.90;;;;;;5023149;28;20460;-72
2024/03/13 12:58:26;;;;;;;9.77;5.63;;;13.10;99.90;;;;;;5008365;28;20549;-72
2024/03/13 13:00:53;;;;;;;14.30;6.67;;;13.10;99.90;;;;;;5013840;28;20482;-71
2024/03/13 13:03:22;;;;;;;14.43;8.40;;;13.00;99.90;;;;;;5025986;28;20455;-73
2024/03/13 13:05:49;;;;;;;9.60;6.07;;;13.00;99.90;;;;;;5004609;28;20449;-71
2024/03/13 13:08:16;;;;;;;14.73;7.30;;;13.10;99.90;;;;;;5013204;28;20491;-72
2024/03/13 13:10:42;;;;;;;13.50;7.30;;;13.00;99.90;;;;;;5012084;28;20482;-72
2024/03/13 13:13:10;;;;;;;10.93;8.00;;;13.00;99.90;;;;;;5025456;28;20471;-71